Time;durP1;ratioP1;P1;durP2;ratioP2;P2;SDS_P1;SDS_P2;PMS_P1;PMS_P2;Temp;Humidity;BMP_temperature;BMP_pressure;BME280_temperature;BME280_humidity;BME280_pressure;Samples;Min_cycle;Max_cycle;Signal;HPM_P1;HPM_P2
2023/05/18 00:02:17;;;;;;;28.05;25.20;;;3.40;99.90;;;;;;4984765;28;20524;-75
2023/05/18 00:04:44;;;;;;;29.27;25.17;;;3.30;99.90;;;;;;4966445;28;20319;-76
2023/05/18 00:07:11;;;;;;;28.58;25.73;;;3.20;99.90;;;;;;4969868;28;20043;-75
2023/05/18 00:09:39;;;;;;;33.67;25.98;;;3.20;99.90;;;;;;4968669;28;20548;-75
2023/05/18 00:12:08;;;;;;;29.75;25.45;;;3.10;99.90;;;;;;4966533;28;20039;-75
2023/05/18 00:14:35;;;;;;;27.88;24.95;;;3.00;99.90;;;;;;4970275;28;20054;-74
2023/05/18 00:17:02;;;;;;;30.13;25.38;;;3.00;99.90;;;;;;4985687;28;20132;-75
2023/05/18 00:19:29;;;;;;;27.92;25.25;;;2.90;99.90;;;;;;4972575;28;20042;-75
2023/05/18 00:21:56;;;;;;;27.17;24.50;;;2.90;99.90;;;;;;4970181;28;20045;-75
2023/05/18 00:24:23;;;;;;;27.50;24.33;;;2.90;99.90;;;;;;4967166;28;20525;-74
2023/05/18 00:26:50;;;;;;;32.60;25.05;;;3.00;99.90;;;;;;4966093;28;20134;-75
2023/05/18 00:29:17;;;;;;;34.17;25.67;;;3.00;99.90;;;;;;4967746;28;20043;-75
2023/05/18 00:31:45;;;;;;;28.08;23.27;;;2.90;99.90;;;;;;4967839;28;20156;-75
2023/05/18 00:34:15;;;;;;;28.20;24.92;;;2.90;99.90;;;;;;4988688;28;20290;-75
2023/05/18 00:36:42;;;;;;;31.73;24.70;;;2.90;99.90;;;;;;4970340;28;20293;-74
2023/05/18 00:39:09;;;;;;;31.80;24.35;;;3.00;99.90;;;;;;4968593;28;20043;-73
2023/05/18 00:41:36;;;;;;;27.42;24.60;;;3.20;99.90;;;;;;4959167;28;20046;-74
2023/05/18 00:44:03;;;;;;;25.75;23.25;;;3.20;99.90;;;;;;4982264;28;20061;-74
2023/05/18 00:46:30;;;;;;;30.73;24.50;;;3.20;99.90;;;;;;4982097;28;20070;-74
2023/05/18 00:49:00;;;;;;;27.27;24.40;;;3.10;99.90;;;;;;4971570;28;20046;-74
2023/05/18 00:51:28;;;;;;;29.80;25.02;;;3.00;99.90;;;;;;4985028;28;20645;-74
2023/05/18 00:53:56;;;;;;;29.15;23.40;;;3.00;99.90;;;;;;4986512;28;20046;-73
2023/05/18 00:56:23;;;;;;;31.10;23.90;;;2.90;99.90;;;;;;4966247;28;20078;-73
2023/05/18 00:58:54;;;;;;;25.67;23.08;;;2.90;99.90;;;;;;4969352;28;20058;-74
2023/05/18 01:01:27;;;;;;;29.70;23.90;;;2.80;99.90;;;;;;4962848;28;20051;-73
2023/05/18 01:03:56;;;;;;;26.05;23.38;;;2.80;99.90;;;;;;4985176;28;20050;-74
2023/05/18 01:06:24;;;;;;;25.92;23.45;;;2.80;99.90;;;;;;4965247;28;20454;-74
2023/05/18 01:08:54;;;;;;;26.02;23.38;;;2.80;99.90;;;;;;4985475;28;20042;-73
2023/05/18 01:11:34;;;;;;;37.25;25.80;;;2.80;99.90;;;;;;4995893;28;20046;-73
2023/05/18 01:14:04;;;;;;;25.13;22.67;;;2.70;99.90;;;;;;4983711;28;20046;-73
2023/05/18 01:16:42;;;;;;;27.35;24.42;;;2.70;99.90;;;;;;4979123;28;20275;-73
2023/05/18 01:19:18;;;;;;;38.28;25.58;;;2.70;99.90;;;;;;4967830;28;20455;-74
2023/05/18 01:22:25;;;;;;;30.30;25.17;;;2.60;99.90;;;;;;4968240;28;20039;-74
2023/05/18 01:25:02;;;;;;;25.52;23.25;;;2.60;99.90;;;;;;4984730;28;20319;-74
2023/05/18 01:27:36;;;;;;;27.20;24.25;;;2.60;99.90;;;;;;4960361;28;20567;-74
2023/05/18 01:30:04;;;;;;;26.35;23.85;;;2.50;99.90;;;;;;4965077;28;20077;-74
2023/05/18 01:32:39;;;;;;;28.05;24.27;;;2.50;99.90;;;;;;4968698;28;20133;-74
2023/05/18 01:35:06;;;;;;;29.85;25.58;;;2.50;99.90;;;;;;4961495;28;20055;-74
2023/05/18 01:37:33;;;;;;;29.70;23.30;;;2.60;99.90;;;;;;4962865;28;20285;-73
2023/05/18 01:40:00;;;;;;;28.70;25.05;;;2.50;99.90;;;;;;4966341;28;20054;-74
2023/05/18 01:42:29;;;;;;;28.33;24.90;;;2.50;99.90;;;;;;4984605;28;20281;-74
2023/05/18 01:45:01;;;;;;;34.25;24.50;;;2.60;99.90;;;;;;4968137;28;20042;-73
2023/05/18 01:47:30;;;;;;;25.85;23.17;;;2.70;99.90;;;;;;4968864;28;20086;-74
2023/05/18 01:50:00;;;;;;;24.17;21.58;;;2.90;99.90;;;;;;4965067;28;20045;-73
2023/05/18 01:52:36;;;;;;;25.42;22.73;;;2.80;99.90;;;;;;4985429;28;20423;-74
2023/05/18 01:55:08;;;;;;;27.17;23.67;;;2.70;99.90;;;;;;4973186;28;20046;-74
2023/05/18 01:57:38;;;;;;;25.85;23.27;;;2.70;99.90;;;;;;4983143;28;20051;-74
2023/05/18 02:00:08;;;;;;;26.25;23.50;;;2.60;99.90;;;;;;4968412;28;20343;-74
2023/05/18 02:02:41;;;;;;;26.00;23.40;;;2.60;99.90;;;;;;4971788;28;20251;-74
2023/05/18 02:05:11;;;;;;;26.70;23.88;;;2.40;99.90;;;;;;4965580;28;20047;-74
2023/05/18 02:07:38;;;;;;;27.27;24.73;;;2.40;99.90;;;;;;4965079;28;20472;-73
2023/05/18 02:10:07;;;;;;;32.25;23.70;;;2.30;99.90;;;;;;4971300;28;20348;-73
2023/05/18 02:12:34;;;;;;;30.27;24.15;;;2.30;99.90;;;;;;4978967;28;20105;-74
2023/05/18 02:15:04;;;;;;;33.10;24.83;;;2.30;99.90;;;;;;4971749;28;20046;-74
2023/05/18 02:17:32;;;;;;;29.92;25.50;;;2.20;99.90;;;;;;4973623;28;20050;-74
2023/05/18 02:19:59;;;;;;;27.33;24.42;;;2.10;99.90;;;;;;4980122;28;20189;-73
2023/05/18 02:22:26;;;;;;;27.67;25.13;;;2.10;99.90;;;;;;4967578;28;20780;-74
2023/05/18 02:24:53;;;;;;;36.90;26.05;;;2.20;99.90;;;;;;4970631;28;20109;-73
2023/05/18 02:27:20;;;;;;;28.40;25.10;;;2.10;99.90;;;;;;4964675;28;20058;-74
2023/05/18 02:29:47;;;;;;;28.60;25.25;;;2.10;99.90;;;;;;4969692;28;20165;-75
2023/05/18 02:32:14;;;;;;;29.23;26.33;;;2.10;99.90;;;;;;4971675;28;20468;-74
2023/05/18 02:34:41;;;;;;;28.33;24.85;;;1.90;99.90;;;;;;4969820;28;20158;-74
2023/05/18 02:37:09;;;;;;;28.55;25.70;;;1.90;99.90;;;;;;4968837;28;20170;-74
2023/05/18 02:39:36;;;;;;;31.77;26.35;;;1.80;99.90;;;;;;4966414;28;20051;-74
2023/05/18 02:42:03;;;;;;;29.38;26.30;;;1.70;99.90;;;;;;4975860;28;20039;-73
2023/05/18 02:44:30;;;;;;;29.42;26.48;;;1.70;99.90;;;;;;4981830;28;20042;-74
2023/05/18 02:46:57;;;;;;;28.55;25.58;;;1.80;99.90;;;;;;4977995;28;20060;-74
2023/05/18 02:49:23;;;;;;;29.73;26.60;;;1.80;99.90;;;;;;4966109;28;20102;-73
2023/05/18 02:51:50;;;;;;;34.17;26.35;;;1.80;99.90;;;;;;4968199;28;20043;-74
2023/05/18 02:54:17;;;;;;;29.63;25.75;;;1.80;99.90;;;;;;4971800;28;20515;-74
2023/05/18 02:56:45;;;;;;;29.30;25.42;;;1.90;99.90;;;;;;4970152;28;20541;-73
2023/05/18 02:59:30;;;;;;;;;;;1.90;99.90;;;;;;4976079;28;20046;-74
2023/05/18 03:01:56;;;;;;;30.35;25.75;;;1.90;99.90;;;;;;4965402;28;19922;-75
2023/05/18 03:04:24;;;;;;;29.08;24.77;;;1.80;99.90;;;;;;4965544;28;20078;-74
2023/05/18 03:06:56;;;;;;;28.35;25.58;;;1.80;99.90;;;;;;4970879;28;20456;-75
2023/05/18 03:09:23;;;;;;;30.73;25.13;;;1.80;99.90;;;;;;4958973;28;20062;-75
2023/05/18 03:11:52;;;;;;;31.02;26.40;;;1.70;99.90;;;;;;4980931;28;20275;-75
2023/05/18 03:14:19;;;;;;;28.30;25.40;;;1.70;99.90;;;;;;4971282;28;20113;-75
2023/05/18 03:16:46;;;;;;;28.85;25.88;;;1.70;99.90;;;;;;4967327;28;20050;-74
2023/05/18 03:19:15;;;;;;;29.05;26.00;;;1.70;99.90;;;;;;4975527;28;20216;-75
2023/05/18 03:21:42;;;;;;;29.83;25.58;;;1.70;99.90;;;;;;4973388;28;20047;-74
2023/05/18 03:24:13;;;;;;;28.30;25.42;;;1.60;99.90;;;;;;5001821;23;20046;-74
2023/05/18 03:26:43;;;;;;;36.67;26.80;;;1.60;99.90;;;;;;4970835;28;20050;-73
2023/05/18 03:29:12;;;;;;;29.60;26.42;;;1.60;99.90;;;;;;4967242;28;20421;-73
2023/05/18 03:31:39;;;;;;;30.85;26.45;;;1.60;99.90;;;;;;4969498;28;20042;-73
2023/05/18 03:34:07;;;;;;;35.45;27.40;;;1.70;99.90;;;;;;4969431;28;21312;-74
2023/05/18 03:36:34;;;;;;;29.25;25.30;;;1.70;99.90;;;;;;4989383;28;20103;-72
2023/05/18 03:39:01;;;;;;;32.53;26.45;;;1.70;99.90;;;;;;4984564;28;20121;-73
2023/05/18 03:41:28;;;;;;;29.67;26.42;;;1.60;99.90;;;;;;4980995;28;20042;-73
2023/05/18 03:43:55;;;;;;;27.60;24.67;;;1.60;99.90;;;;;;4977009;28;20176;-73
2023/05/18 03:46:22;;;;;;;30.92;27.77;;;1.60;99.90;;;;;;4975099;28;20070;-74
2023/05/18 03:48:53;;;;;;;32.65;29.33;;;1.60;99.90;;;;;;4975120;28;20492;-73
2023/05/18 03:51:27;;;;;;;31.02;27.73;;;1.50;99.90;;;;;;4963964;28;20347;-72
2023/05/18 03:53:54;;;;;;;30.92;27.75;;;1.60;99.90;;;;;;4962542;28;20097;-72
2023/05/18 03:56:22;;;;;;;31.73;28.42;;;1.50;99.90;;;;;;4981759;28;20042;-74
2023/05/18 03:58:50;;;;;;;36.47;28.20;;;1.50;99.90;;;;;;4973136;28;20062;-72
2023/05/18 04:01:17;;;;;;;29.90;26.88;;;1.50;99.90;;;;;;4979259;28;20041;-73
2023/05/18 04:03:44;;;;;;;34.72;27.08;;;1.50;99.90;;;;;;4982820;28;20429;-72
2023/05/18 04:06:11;;;;;;;30.70;27.70;;;1.60;99.90;;;;;;4975793;28;20037;-73
2023/05/18 04:08:39;;;;;;;29.42;26.85;;;1.60;99.90;;;;;;4974254;28;20045;-74
2023/05/18 04:11:06;;;;;;;31.85;27.00;;;1.60;99.90;;;;;;4978856;28;20092;-75
2023/05/18 04:13:32;;;;;;;28.52;26.05;;;1.70;99.90;;;;;;4975890;28;20070;-72
2023/05/18 04:15:59;;;;;;;35.33;27.15;;;1.70;99.90;;;;;;4980608;28;20034;-72
2023/05/18 04:18:28;;;;;;;28.95;26.20;;;1.70;99.90;;;;;;4979374;28;20054;-73
2023/05/18 04:20:55;;;;;;;29.00;26.25;;;1.70;99.90;;;;;;4986050;28;20137;-72
2023/05/18 04:23:23;;;;;;;28.98;26.27;;;1.70;99.90;;;;;;4979984;28;20654;-73
2023/05/18 04:25:50;;;;;;;28.20;25.80;;;1.70;99.90;;;;;;4966176;28;20034;-71
2023/05/18 04:28:18;;;;;;;28.77;25.92;;;1.70;99.90;;;;;;4978670;28;20050;-71
2023/05/18 04:30:44;;;;;;;29.23;24.73;;;1.80;99.90;;;;;;4981810;28;20058;-74
2023/05/18 04:33:12;;;;;;;26.77;24.23;;;1.80;99.90;;;;;;4983130;28;20053;-72
2023/05/18 04:35:38;;;;;;;29.60;26.73;;;1.90;99.90;;;;;;4984432;28;20073;-73
2023/05/18 04:38:05;;;;;;;27.98;25.35;;;1.90;99.90;;;;;;4978509;28;20112;-73
2023/05/18 04:40:33;;;;;;;28.13;25.13;;;2.00;99.90;;;;;;4960649;28;20057;-72
2023/05/18 04:43:00;;;;;;;27.58;24.80;;;2.00;99.90;;;;;;4974425;28;20320;-73
2023/05/18 04:45:30;;;;;;;28.65;25.95;;;2.20;99.90;;;;;;4982649;28;20520;-72
2023/05/18 04:48:00;;;;;;;43.67;26.75;;;2.30;99.90;;;;;;4978820;28;20046;-72
2023/05/18 04:50:27;;;;;;;27.60;25.00;;;2.40;99.90;;;;;;4976657;28;20056;-73
2023/05/18 04:52:56;;;;;;;27.27;24.52;;;2.50;99.90;;;;;;4961256;28;20077;-73
2023/05/18 04:55:26;;;;;;;25.85;23.58;;;2.60;99.90;;;;;;4984132;28;20647;-73
2023/05/18 04:58:04;;;;;;;27.08;23.67;;;2.70;99.90;;;;;;4964273;28;20320;-72
2023/05/18 05:00:31;;;;;;;27.67;21.40;;;2.90;99.90;;;;;;4969252;28;20420;-74
2023/05/18 05:02:58;;;;;;;22.13;20.08;;;3.10;99.90;;;;;;4962157;28;20065;-75
2023/05/18 05:05:25;;;;;;;20.83;19.17;;;3.40;99.90;;;;;;4981169;28;20145;-73
2023/05/18 05:07:53;;;;;;;25.17;20.75;;;3.60;99.90;;;;;;4983506;28;20045;-73
2023/05/18 05:10:20;;;;;;;23.88;20.73;;;3.90;99.90;;;;;;4979132;28;20045;-73
2023/05/18 05:12:49;;;;;;;21.17;19.52;;;4.50;99.90;;;;;;4979898;28;20195;-74
2023/05/18 05:15:16;;;;;;;22.83;20.83;;;5.00;99.90;;;;;;4962329;28;20042;-73
2023/05/18 05:17:45;;;;;;;25.30;23.02;;;5.50;99.90;;;;;;4982405;28;20121;-73
2023/05/18 05:20:12;;;;;;;29.27;24.70;;;6.10;99.90;;;;;;4981682;28;20050;-72
2023/05/18 05:22:39;;;;;;;28.85;26.35;;;6.50;99.90;;;;;;4979762;28;20257;-74
2023/05/18 05:25:09;;;;;;;29.67;26.75;;;6.90;99.90;;;;;;4977762;28;20042;-73
2023/05/18 05:27:37;;;;;;;29.40;26.42;;;7.10;99.90;;;;;;4968280;28;20038;-73
2023/05/18 05:30:04;;;;;;;28.98;26.27;;;7.40;99.90;;;;;;4958313;28;20295;-73
2023/05/18 05:32:35;;;;;;;27.75;25.50;;;7.50;99.90;;;;;;4979387;28;20045;-74
2023/05/18 05:35:03;;;;;;;27.67;24.85;;;7.30;99.90;;;;;;4977130;28;20057;-73
2023/05/18 05:37:30;;;;;;;28.10;25.35;;;7.60;99.90;;;;;;4965965;28;20622;-73
2023/05/18 05:39:58;;;;;;;27.52;25.35;;;7.70;99.90;;;;;;4965602;28;20042;-74
2023/05/18 05:42:25;;;;;;;27.00;24.80;;;8.00;99.90;;;;;;4958783;28;20045;-73
2023/05/18 05:44:55;;;;;;;27.00;24.88;;;8.30;99.90;;;;;;4979977;28;20274;-74
2023/05/18 05:47:23;;;;;;;29.23;26.70;;;8.20;99.90;;;;;;4974606;28;20339;-73
2023/05/18 05:49:50;;;;;;;28.42;26.00;;;7.70;99.90;;;;;;4986619;28;20280;-74
2023/05/18 05:52:17;;;;;;;27.75;25.40;;;7.90;99.90;;;;;;4972172;28;20035;-74
2023/05/18 05:54:44;;;;;;;27.75;25.30;;;7.90;99.90;;;;;;4958272;28;20059;-73
2023/05/18 05:57:10;;;;;;;28.25;25.75;;;7.90;99.90;;;;;;4979757;28;20486;-73
2023/05/18 05:59:37;;;;;;;28.45;25.85;;;8.10;99.90;;;;;;4985980;28;20038;-72
2023/05/18 06:02:04;;;;;;;28.05;25.85;;;8.50;99.90;;;;;;4976852;28;20538;-73
2023/05/18 06:04:31;;;;;;;28.08;25.65;;;8.50;99.90;;;;;;4983219;28;20049;-73
2023/05/18 06:06:58;;;;;;;29.17;26.10;;;8.40;99.90;;;;;;4978022;28;20413;-73
2023/05/18 06:09:25;;;;;;;29.17;26.25;;;7.90;99.90;;;;;;4982753;28;20262;-72
2023/05/18 06:11:53;;;;;;;29.38;26.67;;;7.50;99.90;;;;;;4971472;28;20508;-73
2023/05/18 06:14:20;;;;;;;27.10;24.75;;;7.30;99.90;;;;;;4956716;28;20151;-73
2023/05/18 06:16:47;;;;;;;27.58;25.40;;;7.40;99.90;;;;;;4981005;28;20401;-73
2023/05/18 06:19:14;;;;;;;30.45;27.52;;;7.80;99.90;;;;;;4978198;28;20047;-72
2023/05/18 06:21:41;;;;;;;28.38;26.17;;;7.80;99.90;;;;;;4972295;28;20547;-74
2023/05/18 06:24:08;;;;;;;29.95;27.58;;;8.10;99.90;;;;;;4995785;28;20054;-72
2023/05/18 06:26:42;;;;;;;31.77;29.37;;;8.20;99.90;;;;;;4966405;28;20065;-73
2023/05/18 06:29:20;;;;;;;31.52;29.02;;;8.20;99.90;;;;;;4979776;28;20296;-72
2023/05/18 06:32:19;;;;;;;31.23;29.00;;;7.90;99.90;;;;;;4956860;28;20145;-73
2023/05/18 06:34:52;;;;;;;31.83;29.30;;;7.90;99.90;;;;;;4979180;28;20045;-72
2023/05/18 06:37:20;;;;;;;31.55;29.15;;;7.90;99.90;;;;;;4982432;28;20293;-73
2023/05/18 06:39:48;;;;;;;31.90;29.27;;;8.10;99.90;;;;;;4968650;28;20034;-72
2023/05/18 06:42:15;;;;;;;32.22;29.60;;;8.10;99.90;;;;;;4979259;28;20038;-72
2023/05/18 06:44:59;;;;;;;32.40;29.23;;;8.20;99.90;;;;;;4977554;28;20057;-73
2023/05/18 06:47:47;;;;;;;30.88;28.58;;;8.50;99.90;;;;;;4985816;28;20347;-73
2023/05/18 06:50:14;;;;;;;31.52;29.17;;;9.00;99.90;;;;;;4984991;28;20046;-73
2023/05/18 06:52:41;;;;;;;30.13;27.85;;;9.10;99.90;;;;;;4981132;28;20169;-73
2023/05/18 06:55:08;;;;;;;31.20;28.75;;;9.80;99.90;;;;;;4977902;28;20073;-73
2023/05/18 06:57:35;;;;;;;30.83;28.55;;;10.00;99.90;;;;;;4986888;28;20335;-73
2023/05/18 07:00:05;;;;;;;31.02;28.17;;;10.50;99.90;;;;;;4965829;28;20088;-74
2023/05/18 07:02:33;;;;;;;30.92;28.60;;;10.20;99.90;;;;;;4986704;28;20069;-72
2023/05/18 07:05:00;;;;;;;32.38;29.35;;;10.20;99.90;;;;;;4985835;28;20060;-74
2023/05/18 07:07:27;;;;;;;31.90;28.95;;;10.00;99.90;;;;;;4985685;28;20034;-73
2023/05/18 07:09:53;;;;;;;30.73;28.17;;;9.90;99.90;;;;;;4970694;28;20053;-72
2023/05/18 07:12:21;;;;;;;30.27;27.77;;;10.40;99.90;;;;;;4982225;28;20073;-73
2023/05/18 07:14:48;;;;;;;28.33;26.00;;;10.70;99.90;;;;;;4971993;28;20100;-73
2023/05/18 07:17:14;;;;;;;30.27;27.98;;;11.10;99.90;;;;;;4983363;28;20098;-72
2023/05/18 07:19:41;;;;;;;30.85;28.10;;;11.80;99.90;;;;;;4980972;28;20081;-74
2023/05/18 07:22:08;;;;;;;30.85;28.55;;;11.60;99.90;;;;;;4978832;28;20081;-73
2023/05/18 07:24:35;;;;;;;29.98;27.63;;;12.20;99.90;;;;;;4977108;28;20116;-72
2023/05/18 07:27:02;;;;;;;29.13;26.92;;;11.40;99.90;;;;;;4980717;28;20128;-72
2023/05/18 07:29:29;;;;;;;32.78;29.67;;;11.80;99.90;;;;;;4976949;28;20081;-72
2023/05/18 07:31:56;;;;;;;31.38;28.67;;;12.10;99.90;;;;;;4974787;28;20116;-72
2023/05/18 07:34:25;;;;;;;32.47;29.52;;;11.80;99.90;;;;;;4976718;28;20047;-72
2023/05/18 07:36:52;;;;;;;32.30;29.65;;;11.60;99.90;;;;;;4978333;28;20038;-72
2023/05/18 07:39:20;;;;;;;33.60;30.80;;;11.60;99.90;;;;;;4978944;28;20407;-72
2023/05/18 07:41:48;;;;;;;34.42;31.85;;;11.70;99.90;;;;;;4980899;28;20054;-74
2023/05/18 07:44:15;;;;;;;34.83;32.35;;;11.20;99.90;;;;;;4977106;28;20584;-72
2023/05/18 07:46:42;;;;;;;34.00;31.45;;;11.30;99.90;;;;;;4968937;28;20061;-73
2023/05/18 07:49:09;;;;;;;31.77;29.35;;;12.00;99.90;;;;;;4985682;28;20053;-72
2023/05/18 07:51:35;;;;;;;32.20;29.70;;;12.80;99.90;;;;;;4978697;28;20612;-72
2023/05/18 07:54:03;;;;;;;34.10;31.67;;;12.80;99.90;;;;;;4984021;28;20341;-72
2023/05/18 07:56:30;;;;;;;35.20;32.67;;;13.00;99.90;;;;;;4979567;28;20137;-72
2023/05/18 07:58:57;;;;;;;34.28;31.60;;;13.30;99.90;;;;;;4976265;28;20069;-70
2023/05/18 08:01:26;;;;;;;36.05;33.75;;;13.00;99.90;;;;;;4975140;28;20042;-71
2023/05/18 08:03:53;;;;;;;32.90;30.55;;;12.30;99.90;;;;;;4977910;28;20050;-72
2023/05/18 08:06:20;;;;;;;34.10;31.60;;;11.80;99.90;;;;;;4979923;28;20134;-72
2023/05/18 08:08:47;;;;;;;33.20;30.98;;;11.50;99.90;;;;;;4981757;28;20050;-71
2023/05/18 08:11:13;;;;;;;36.67;33.42;;;11.70;99.90;;;;;;4981112;28;20037;-71
2023/05/18 08:13:40;;;;;;;32.90;30.88;;;11.80;99.90;;;;;;4980645;28;20160;-73
2023/05/18 08:16:07;;;;;;;31.63;29.50;;;11.40;99.90;;;;;;4969693;28;20112;-72
2023/05/18 08:18:38;;;;;;;35.00;31.98;;;12.20;99.90;;;;;;4977152;28;20046;-73
2023/05/18 08:21:08;;;;;;;34.15;31.67;;;12.70;99.90;;;;;;4976321;28;20515;-73
2023/05/18 08:23:36;;;;;;;33.47;31.05;;;13.10;99.90;;;;;;4982181;28;20746;-72
2023/05/18 08:26:03;;;;;;;36.05;33.15;;;12.70;99.90;;;;;;4974936;28;20038;-72
2023/05/18 08:28:30;;;;;;;34.75;32.22;;;12.20;99.90;;;;;;4974746;28;20116;-71
2023/05/18 08:30:57;;;;;;;34.33;31.58;;;12.20;99.90;;;;;;4974591;28;20050;-71
2023/05/18 08:33:24;;;;;;;33.00;30.50;;;13.20;99.90;;;;;;4975190;28;20635;-72
2023/05/18 08:35:51;;;;;;;35.25;32.50;;;13.90;99.90;;;;;;4976314;28;20046;-72
2023/05/18 08:38:18;;;;;;;38.80;35.88;;;14.20;99.90;;;;;;4965910;28;20045;-71
2023/05/18 08:41:24;;;;;;;37.65;34.75;;;14.10;99.90;;;;;;4978804;28;20459;-71
2023/05/18 08:44:21;;;;;;;36.28;33.97;;;13.90;99.90;;;;;;4969008;28;20046;-70
2023/05/18 08:46:50;;;;;;;35.70;33.30;;;14.20;99.90;;;;;;4969086;28;20042;-71
2023/05/18 08:49:19;;;;;;;37.22;34.38;;;14.30;99.90;;;;;;4987833;28;20100;-70
2023/05/18 08:51:48;;;;;;;35.05;32.47;;;13.00;99.90;;;;;;4996554;28;20069;-71
2023/05/18 08:54:21;;;;;;;34.25;31.70;;;12.40;99.90;;;;;;4991343;28;20208;-71
2023/05/18 08:56:49;;;;;;;35.35;32.63;;;12.80;99.90;;;;;;5002055;28;20053;-71
2023/05/18 08:59:22;;;;;;;36.78;34.03;;;12.90;99.90;;;;;;5000435;28;20034;-71
2023/05/18 09:01:50;;;;;;;37.70;34.75;;;13.70;99.90;;;;;;4989077;28;20042;-71
2023/05/18 09:04:18;;;;;;;38.20;35.35;;;14.10;99.90;;;;;;4991845;28;20037;-70
2023/05/18 09:06:47;;;;;;;37.05;34.63;;;13.50;99.90;;;;;;4995682;28;20110;-71
2023/05/18 09:09:15;;;;;;;38.47;35.88;;;13.90;99.90;;;;;;4996578;28;20042;-72
2023/05/18 09:11:42;;;;;;;39.95;37.22;;;14.10;99.90;;;;;;4988405;28;20049;-71
2023/05/18 09:14:09;;;;;;;39.63;36.85;;;14.50;99.90;;;;;;4989521;28;20062;-71
2023/05/18 09:16:36;;;;;;;39.13;36.55;;;13.90;99.90;;;;;;4978463;28;20038;-71
2023/05/18 09:19:03;;;;;;;35.25;32.80;;;14.10;99.90;;;;;;4979692;28;20053;-71
2023/05/18 09:21:31;;;;;;;37.50;34.88;;;14.80;99.90;;;;;;4972751;28;20041;-72
2023/05/18 09:23:59;;;;;;;39.17;36.03;;;14.50;99.90;;;;;;5008504;23;20046;-73
2023/05/18 09:26:26;;;;;;;38.08;35.28;;;14.40;99.90;;;;;;4970397;28;20042;-74
2023/05/18 09:28:53;;;;;;;36.40;33.67;;;13.90;99.90;;;;;;4979850;28;20519;-74
2023/05/18 09:31:23;;;;;;;36.78;34.08;;;14.00;99.90;;;;;;4983383;28;20123;-74
2023/05/18 09:33:51;;;;;;;45.40;42.20;;;14.00;99.90;;;;;;4980087;28;20050;-74
2023/05/18 09:36:24;;;;;;;45.10;41.67;;;13.20;99.90;;;;;;4973322;28;20047;-75
2023/05/18 09:38:52;;;;;;;41.63;38.92;;;13.50;99.90;;;;;;4976191;28;20035;-74
2023/05/18 09:41:18;;;;;;;43.08;40.17;;;13.70;99.90;;;;;;4972351;28;20093;-76
2023/05/18 09:43:50;;;;;;;41.63;38.60;;;13.90;99.90;;;;;;4972685;28;20047;-76
2023/05/18 09:46:17;;;;;;;34.03;31.48;;;14.60;99.90;;;;;;4980758;28;20049;-76
2023/05/18 09:48:54;;;;;;;36.58;33.63;;;15.10;99.90;;;;;;4975946;28;20042;-75
2023/05/18 09:51:23;;;;;;;36.00;33.25;;;13.80;99.90;;;;;;4974214;28;20136;-75
2023/05/18 09:53:55;;;;;;;36.40;33.65;;;12.50;99.90;;;;;;4978587;28;20042;-75
2023/05/18 09:56:25;;;;;;;35.67;33.05;;;12.30;99.90;;;;;;4962425;28;20058;-75
2023/05/18 09:58:53;;;;;;;35.33;32.55;;;12.60;99.90;;;;;;4965467;28;20049;-75
2023/05/18 10:01:19;;;;;;;43.50;40.47;;;12.70;99.90;;;;;;4972913;28;20354;-75
2023/05/18 10:03:48;;;;;;;47.08;43.28;;;12.90;99.90;;;;;;4976749;28;20070;-75
2023/05/18 10:06:19;;;;;;;42.67;39.78;;;13.30;99.90;;;;;;4977114;28;20034;-74
2023/05/18 10:08:46;;;;;;;44.83;41.80;;;13.60;99.90;;;;;;4962287;28;20198;-77
2023/05/18 10:11:18;;;;;;;38.38;35.10;;;13.70;99.90;;;;;;4970722;28;20422;-75
2023/05/18 10:13:45;;;;;;;41.95;38.85;;;14.50;99.90;;;;;;4974213;28;20053;-74
2023/05/18 10:16:14;;;;;;;48.97;45.47;;;15.00;99.90;;;;;;4972217;28;20046;-74
2023/05/18 10:18:41;;;;;;;48.00;44.63;;;15.40;99.90;;;;;;4974802;28;20047;-74
2023/05/18 10:21:11;;;;;;;46.10;43.03;;;14.30;99.90;;;;;;4974574;28;20567;-76
2023/05/18 10:23:40;;;;;;;34.35;32.28;;;14.10;99.90;;;;;;4976989;28;20590;-74
2023/05/18 10:26:08;;;;;;;37.20;34.72;;;13.80;99.90;;;;;;4970370;28;20507;-75
2023/05/18 10:28:41;;;;;;;44.45;41.40;;;13.60;99.90;;;;;;4978079;28;20057;-75
2023/05/18 10:31:08;;;;;;;46.53;43.80;;;13.90;99.90;;;;;;4976508;28;20104;-75
2023/05/18 10:33:36;;;;;;;48.60;45.60;;;14.30;99.90;;;;;;4977809;28;20045;-74
2023/05/18 10:36:05;;;;;;;48.38;45.03;;;14.60;99.90;;;;;;4976357;28;20057;-74
2023/05/18 10:38:35;;;;;;;48.92;45.83;;;13.80;99.90;;;;;;4976602;28;20144;-75
2023/05/18 10:41:04;;;;;;;46.65;43.50;;;13.60;99.90;;;;;;4976236;28;20042;-75
2023/05/18 10:43:33;;;;;;;49.47;46.33;;;14.70;99.90;;;;;;4976043;28;20117;-75
2023/05/18 10:46:00;;;;;;;47.97;44.80;;;15.00;99.90;;;;;;4979431;28;22109;-76
2023/05/18 10:48:28;;;;;;;49.20;46.00;;;15.00;99.90;;;;;;4974214;28;20097;-74
2023/05/18 10:50:56;;;;;;;46.45;43.53;;;15.30;99.90;;;;;;4976908;28;20039;-75
2023/05/18 10:53:28;;;;;;;40.30;37.75;;;15.40;99.90;;;;;;4972573;28;20125;-74
2023/05/18 10:55:55;;;;;;;48.38;45.42;;;16.30;99.90;;;;;;4974909;28;20038;-75
2023/05/18 10:58:25;;;;;;;49.42;45.72;;;15.10;99.90;;;;;;4978687;28;20082;-76
2023/05/18 11:00:56;;;;;;;47.67;44.25;;;14.50;99.90;;;;;;4974745;28;20085;-75
2023/05/18 11:03:25;;;;;;;48.72;45.70;;;14.30;99.90;;;;;;4976609;28;20047;-74
2023/05/18 11:06:10;;;;;;;49.47;46.47;;;14.40;99.90;;;;;;4978375;28;20084;-75
2023/05/18 11:08:47;;;;;;;59.53;54.33;;;14.40;99.90;;;;;;4995163;28;20034;-74
2023/05/18 11:11:14;;;;;;;56.00;51.47;;;14.80;99.90;;;;;;5004746;28;20073;-74
2023/05/18 11:13:48;;;;;;;49.38;46.08;;;15.00;99.90;;;;;;4996628;28;21191;-75
2023/05/18 11:16:16;;;;;;;49.75;46.15;;;15.00;99.90;;;;;;4972356;28;20257;-75
2023/05/18 11:18:51;;;;;;;48.08;44.92;;;15.30;99.90;;;;;;4974404;28;20471;-75
2023/05/18 11:21:18;;;;;;;57.00;52.10;;;16.10;99.90;;;;;;4972789;28;20042;-74
2023/05/18 11:24:13;;;;;;;48.42;45.50;;;16.20;99.90;;;;;;4974601;28;20531;-76
2023/05/18 11:26:41;;;;;;;47.33;44.20;;;16.00;99.90;;;;;;4975690;28;20046;-76
2023/05/18 11:29:22;;;;;;;36.80;34.53;;;16.00;99.90;;;;;;4968819;28;20512;-76
2023/05/18 11:31:54;;;;;;;40.05;37.13;;;16.20;99.90;;;;;;4974146;28;20092;-76
2023/05/18 11:34:43;;;;;;;44.58;41.70;;;16.70;99.90;;;;;;4976138;28;20046;-75
2023/05/18 11:37:11;;;;;;;49.70;46.15;;;16.80;99.90;;;;;;4975277;28;20089;-76
2023/05/18 11:39:38;;;;;;;50.47;47.35;;;16.90;99.90;;;;;;4972981;28;20061;-75
2023/05/18 11:42:18;;;;;;;36.70;34.13;;;17.00;99.90;;;;;;4974879;28;20034;-76
2023/05/18 11:44:56;;;;;;;44.00;40.90;;;17.40;99.90;;;;;;4977482;28;20157;-77
2023/05/18 11:47:30;;;;;;;35.97;33.35;;;17.50;99.90;;;;;;4982212;28;20507;-76
2023/05/18 11:49:57;;;;;;;51.08;47.88;;;16.40;99.90;;;;;;4973320;28;20224;-76
2023/05/18 11:52:24;;;;;;;51.80;48.70;;;15.90;99.90;;;;;;4957731;28;20105;-76
2023/05/18 11:54:56;;;;;;;45.90;42.75;;;15.70;99.90;;;;;;4974805;28;20050;-76
2023/05/18 11:57:39;;;;;;;34.85;32.55;;;15.70;99.90;;;;;;4976115;28;20080;-74
2023/05/18 12:00:08;;;;;;;36.30;33.67;;;15.60;99.90;;;;;;4974338;28;20049;-77
2023/05/18 12:02:43;;;;;;;35.53;33.05;;;15.60;99.90;;;;;;4974041;28;20373;-76
2023/05/18 12:05:10;;;;;;;40.22;37.63;;;15.80;99.90;;;;;;4975987;28;20069;-76
2023/05/18 12:07:38;;;;;;;51.65;48.45;;;15.80;99.90;;;;;;4974284;28;20042;-76
2023/05/18 12:10:16;;;;;;;48.80;45.40;;;15.70;99.90;;;;;;4978546;28;20061;-76
2023/05/18 12:12:47;;;;;;;34.85;32.47;;;15.60;99.90;;;;;;4971859;28;20053;-76
2023/05/18 12:15:14;;;;;;;53.63;50.15;;;15.00;99.90;;;;;;4970538;28;20110;-76
2023/05/18 12:17:45;;;;;;;38.80;35.97;;;14.70;99.90;;;;;;4974910;28;20100;-76
2023/05/18 12:20:17;;;;;;;39.17;36.53;;;14.90;99.90;;;;;;4989449;28;20042;-76
2023/05/18 12:22:54;;;;;;;37.80;34.90;;;14.60;99.90;;;;;;4985618;28;20608;-76
2023/05/18 12:25:22;;;;;;;39.38;36.97;;;14.80;99.90;;;;;;4977815;28;20030;-76
2023/05/18 12:27:51;;;;;;;44.53;41.90;;;14.40;99.90;;;;;;4974605;28;20108;-76
2023/05/18 12:30:20;;;;;;;47.97;45.15;;;13.70;99.90;;;;;;4972599;28;20678;-75
2023/05/18 12:32:49;;;;;;;48.25;45.53;;;13.80;99.90;;;;;;4971266;28;20124;-76
2023/05/18 12:35:20;;;;;;;49.88;46.60;;;14.50;99.90;;;;;;4970258;28;20507;-76
2023/05/18 12:37:47;;;;;;;46.10;42.90;;;14.30;99.90;;;;;;4974438;28;20046;-76
2023/05/18 12:40:15;;;;;;;39.10;36.22;;;15.20;99.90;;;;;;4974602;28;20042;-75
2023/05/18 12:42:59;;;;;;;38.30;35.60;;;15.70;99.90;;;;;;4973454;28;20044;-77
2023/05/18 12:45:30;;;;;;;43.58;40.10;;;15.50;99.90;;;;;;4969386;28;20415;-76